C2 — ZCYD3 — position and weather

sailwx.info

Track history (hours):
 
Tides and Currents Weather Stations Pressure Air Temp Water Temp Dewpoint Dewpoint Depression Visibility Wind Speed Wind Dir Waves Ship Positions

C2

Last reported at 2014-Jun-30 20:31 UTC. Time now 2014-Jul-30 09:05 UTC.
Position N 42°24' E 009°56'.
Warning: this ship's position is 29 days out of date.

Length 79 m; draft 3.4 m.

Type: Pleasure craft. MMSI: 319268000.

Date/timePositionNaut miles runAvg speedWind from/ knotsBaromVisibWave heightAir tempDewpointWater temp
2014-Jun-30 20:31N 42°24' E 009°56'1515.0
2014-Jun-30 19:29N 42°38' E 009°48'1415.1
2014-Jun-30 18:34N 42°51' E 009°40'1414.4
2014-Jun-30 17:33N 43°04' E 009°31'1515.2
2014-Jun-30 16:33N 43°10' E 009°12'1515.0
2014-Jun-30 15:32N 43°16' E 008°53'6913.5
2014-Jun-30 10:25N 43°44' E 007°26'0 0.0
2014-Jun-30 09:08N 43°44' E 007°26'0 0.0
2014-Jun-29 09:21N 43°44' E 007°26'0 0.0
2014-Jun-29 08:33N 43°44' E 007°26'0 0.0
2014-Jun-29 07:24N 43°44' E 007°26'0 0.0
2014-Jun-29 06:14N 43°44' E 007°26'811.7
2014-Jun-29 05:33N 43°39' E 007°19'1211.7
2014-Jun-29 04:33N 43°33' E 007°04'0 0.1
2014-Jun-29 03:30N 43°33' E 007°04'0 0.0
2014-Jun-29 02:30N 43°33' E 007°04'0 0.0
2014-Jun-29 01:30N 43°33' E 007°04'0 0.0
2014-Jun-29 00:30N 43°33' E 007°04'0 0.0
2014-Jun-28 23:30N 43°33' E 007°04'0 0.0
2014-Jun-28 22:24N 43°33' E 007°04'0 0.0
2014-Jun-28 21:30N 43°33' E 007°04'2 1.9
2014-Jun-28 20:33N 43°33' E 007°07'0 0.2
2014-Jun-28 19:31N 43°33' E 007°07'0 0.0
2014-Jun-28 18:31N 43°33' E 007°07'0 0.0
2014-Jun-28 17:31N 43°33' E 007°07'0 0.0
2014-Jun-28 16:31N 43°33' E 007°07'0 0.0
2014-Jun-28 15:31N 43°33' E 007°07'0 0.0
2014-Jun-28 14:31N 43°33' E 007°07'0 0.0
2014-Jun-28 13:31N 43°33' E 007°07'0 0.0
2014-Jun-28 12:31N 43°33' E 007°07'0 0.0
2014-Jun-28 11:25N 43°33' E 007°07'0 0.0
2014-Jun-28 10:31N 43°33' E 007°07'0 0.0
2014-Jun-28 09:25N 43°33' E 007°07'0 0.0
2014-Jun-28 08:31N 43°33' E 007°07'0 0.0
2014-Jun-28 07:31N 43°33' E 007°07'0 0.0
2014-Jun-28 06:31N 43°33' E 007°07'0 0.0
2014-Jun-28 05:31N 43°33' E 007°07'0 0.0
2014-Jun-28 04:31N 43°33' E 007°07'0 0.0
2014-Jun-28 03:31N 43°33' E 007°07'0 0.0
2014-Jun-28 02:31N 43°33' E 007°07'0 0.0
2014-Jun-28 01:19N 43°33' E 007°07'0 0.0
2014-Jun-28 00:31N 43°33' E 007°07'0 0.0
2014-Jun-27 23:31N 43°33' E 007°07'0 0.0
2014-Jun-27 22:31N 43°33' E 007°07'0 0.0
2014-Jun-27 21:31N 43°33' E 007°07'0 0.0
2014-Jun-27 20:25N 43°33' E 007°07'0 0.0
2014-Jun-27 19:31N 43°33' E 007°07'0 0.0
2014-Jun-27 18:31N 43°33' E 007°07'0 0.0
2014-Jun-27 17:31N 43°33' E 007°07'2 2.2
2014-Jun-27 16:34N 43°34' E 007°09'5 5.2
2014-Jun-27 15:33N 43°39' E 007°10'0 0.1
2014-Jun-27 14:33N 43°39' E 007°10'1 0.5
2014-Jun-27 13:08N 43°39' E 007°11'0 0.0
2014-Jun-27 12:32N 43°39' E 007°11'0 0.0
2014-Jun-27 11:26N 43°39' E 007°11'0 0.5
2014-Jun-27 10:33N 43°39' E 007°10'4 3.7
2014-Jun-27 09:33N 43°35' E 007°08'6 2.8
2014-Jun-27 07:27N 43°33' E 007°01'6 6.2
2014-Jun-27 06:33N 43°35' E 007°08'0 0.1
2014-Jun-27 05:30N 43°35' E 007°08'0 0.0
2014-Jun-27 04:30N 43°35' E 007°08'0 0.0
2014-Jun-27 03:30N 43°35' E 007°08'0 0.0
2014-Jun-27 02:30N 43°35' E 007°08'0 0.0
2014-Jun-27 01:30N 43°35' E 007°08'0 0.0
2014-Jun-27 00:30N 43°35' E 007°08'0 0.0
2014-Jun-26 23:30N 43°35' E 007°08'0 0.0
2014-Jun-26 22:30N 43°35' E 007°08'0 0.0
2014-Jun-26 21:30N 43°35' E 007°08'0 0.0
2014-Jun-26 20:30N 43°35' E 007°08'0 0.0
2014-Jun-26 19:24N 43°35' E 007°08'0 0.0
2014-Jun-26 18:30N 43°35' E 007°08'13 4.3
2014-Jun-26 15:32N 43°43' E 007°21'0 0.0
2014-Jun-26 14:20N 43°43' E 007°21'2 0.5
2014-Jun-26 11:06N 43°41' E 007°21'814.8
2014-Jun-26 10:33N 43°36' E 007°14'10 9.2
2014-Jun-26 09:31N 43°32' E 007°01'0 0.0
2014-Jun-26 07:31N 43°32' E 007°01'1 0.7
2014-Jun-26 06:33N 43°32' E 007°01'4 3.9
2014-Jun-26 05:31N 43°34' E 007°06'0 0.0
2014-Jun-26 04:31N 43°34' E 007°06'0 0.0
2014-Jun-26 03:34N 43°34' E 007°06'0 0.0
2014-Jun-26 02:34N 43°34' E 007°06'0 0.0
2014-Jun-26 01:30N 43°34' E 007°06'0 0.0
2014-Jun-26 00:30N 43°34' E 007°06'0 0.0
2014-Jun-25 23:31N 43°34' E 007°06'0 0.0
2014-Jun-25 22:31N 43°34' E 007°06'0 0.0
2014-Jun-25 21:30N 43°34' E 007°06'0 0.0
2014-Jun-25 20:31N 43°34' E 007°06'0 0.0
2014-Jun-25 19:31N 43°34' E 007°06'0 0.0
2014-Jun-25 18:31N 43°34' E 007°06'7 7.8
2014-Jun-25 17:33N 43°27' E 007°01'1615.3
2014-Jun-25 16:32N 43°16' E 006°46'5 4.9
2014-Jun-25 15:33N 43°14' E 006°40'0 0.0
2014-Jun-25 14:33N 43°14' E 006°40'0 0.0
2014-Jun-25 13:29N 43°14' E 006°40'0 0.0
2014-Jun-25 12:32N 43°14' E 006°40'0 0.0
2014-Jun-25 11:29N 43°14' E 006°40'0 0.1
2014-Jun-25 10:30N 43°14' E 006°40'0 0.0
2014-Jun-25 09:29N 43°14' E 006°40'0 0.0
2014-Jun-25 08:29N 43°14' E 006°40'0 0.0
2014-Jun-25 07:23N 43°14' E 006°40'3 3.8
2014-Jun-25 06:34N 43°16' E 006°43'4 4.2
2014-Jun-25 05:32N 43°16' E 006°38'0 0.0
2014-Jun-25 02:11N 43°16' E 006°37'0 0.0
2014-Jun-25 01:29N 43°16' E 006°38'0 0.0
2014-Jun-25 00:29N 43°16' E 006°38'0 0.0
2014-Jun-24 12:26N 43°16' E 006°37'3 1.5
2014-Jun-24 10:33N 43°17' E 006°41'4 1.8
2014-Jun-24 08:28N 43°14' E 006°40'0 0.0
2014-Jun-24 07:28N 43°14' E 006°40'2 2.6
2014-Jun-24 06:33N 43°14' E 006°43'1515.0
2014-Jun-24 05:34N 43°22' E 007°01'6315.7
2014-Jun-24 01:33N 43°54' E 008°16'1615.8
2014-Jun-24 00:34N 44°02' E 008°35'1515.5
2014-Jun-23 23:34N 44°10' E 008°53'1514.8
2014-Jun-23 22:33N 44°17' E 009°11'2 0.1
2014-Jun-23 07:13N 44°18' E 009°13'812.1
2014-Jun-23 06:33N 44°14' E 009°05'7714.3
2014-Jun-23 01:09N 43°38' E 007°29'914.8
2014-Jun-23 00:34N 43°35' E 007°18'6 6.1
2014-Jun-22 23:33N 43°35' E 007°09'4 3.9
2014-Jun-22 22:30N 43°39' E 007°11'0 0.0
2014-Jun-22 21:30N 43°39' E 007°11'0 0.0
2014-Jun-22 20:30N 43°39' E 007°11'0 0.0
2014-Jun-22 19:30N 43°39' E 007°11'0 0.2
2014-Jun-22 18:26N 43°39' E 007°11'0 0.0
2014-Jun-22 17:32N 43°39' E 007°11'0 0.0
2014-Jun-22 16:32N 43°39' E 007°11'0 0.0
2014-Jun-22 15:32N 43°39' E 007°11'7 7.1
2014-Jun-22 14:33N 43°32' E 007°08'2 1.6
2014-Jun-22 13:31N 43°33' E 007°06'0 0.0
2014-Jun-22 12:31N 43°33' E 007°06'0 0.0
2014-Jun-22 11:25N 43°33' E 007°06'0 0.0
2014-Jun-22 10:31N 43°33' E 007°06'0 0.0
2014-Jun-22 09:19N 43°33' E 007°06'4 4.7
2014-Jun-22 08:33N 43°30' E 007°04'3 0.8
2014-Jun-22 04:31N 43°32' E 007°01'0 0.0
2014-Jun-22 03:31N 43°32' E 007°01'0 0.0
2014-Jun-22 02:31N 43°32' E 007°01'0 0.0
2014-Jun-22 01:31N 43°32' E 007°01'0 0.0
2014-Jun-22 00:31N 43°32' E 007°01'0 0.0
2014-Jun-21 15:31N 43°32' E 007°01'0 0.0
2014-Jun-21 11:19N 43°32' E 007°01'0 0.0
2014-Jun-21 10:31N 43°32' E 007°01'0 0.0
2014-Jun-21 09:31N 43°32' E 007°01'0 0.0
2014-Jun-21 08:25N 43°32' E 007°01'0 0.0
2014-Jun-21 04:31N 43°32' E 007°01'0 0.0
2014-Jun-20 22:28N 43°32' E 007°01'0 0.0
2014-Jun-20 21:04N 43°32' E 007°01'  
Track history (hours):
 
Tides and Currents Weather Stations Pressure Air Temp Water Temp Dewpoint Dewpoint Depression Visibility Wind Speed Wind Dir Waves Ship Positions

C2

Last reported at 2014-Jun-30 20:31 UTC. Time now 2014-Jul-30 09:05 UTC.
Position N 42°24' E 009°56'.
Warning: this ship's position is 29 days out of date.

Length 79 m; draft 3.4 m.

Type: Pleasure craft. MMSI: 319268000.

Date/timePositionNaut miles runAvg speedWind from/ knotsBaromVisibWave heightAir tempDewpointWater temp
2014-Jun-30 20:31N 42°24' E 009°56'1515.0
2014-Jun-30 19:29N 42°38' E 009°48'1415.1
2014-Jun-30 18:34N 42°51' E 009°40'1414.4
2014-Jun-30 17:33N 43°04' E 009°31'1515.2
2014-Jun-30 16:33N 43°10' E 009°12'1515.0
2014-Jun-30 15:32N 43°16' E 008°53'6913.5
2014-Jun-30 10:25N 43°44' E 007°26'0 0.0
2014-Jun-30 09:08N 43°44' E 007°26'0 0.0
2014-Jun-29 09:21N 43°44' E 007°26'0 0.0
2014-Jun-29 08:33N 43°44' E 007°26'0 0.0
2014-Jun-29 07:24N 43°44' E 007°26'0 0.0
2014-Jun-29 06:14N 43°44' E 007°26'811.7
2014-Jun-29 05:33N 43°39' E 007°19'1211.7
2014-Jun-29 04:33N 43°33' E 007°04'0 0.1
2014-Jun-29 03:30N 43°33' E 007°04'0 0.0
2014-Jun-29 02:30N 43°33' E 007°04'0 0.0
2014-Jun-29 01:30N 43°33' E 007°04'0 0.0
2014-Jun-29 00:30N 43°33' E 007°04'0 0.0
2014-Jun-28 23:30N 43°33' E 007°04'0 0.0
2014-Jun-28 22:24N 43°33' E 007°04'0 0.0
2014-Jun-28 21:30N 43°33' E 007°04'2 1.9
2014-Jun-28 20:33N 43°33' E 007°07'0 0.2
2014-Jun-28 19:31N 43°33' E 007°07'0 0.0
2014-Jun-28 18:31N 43°33' E 007°07'0 0.0
2014-Jun-28 17:31N 43°33' E 007°07'0 0.0
2014-Jun-28 16:31N 43°33' E 007°07'0 0.0
2014-Jun-28 15:31N 43°33' E 007°07'0 0.0
2014-Jun-28 14:31N 43°33' E 007°07'0 0.0
2014-Jun-28 13:31N 43°33' E 007°07'0 0.0
2014-Jun-28 12:31N 43°33' E 007°07'0 0.0
2014-Jun-28 11:25N 43°33' E 007°07'0 0.0
2014-Jun-28 10:31N 43°33' E 007°07'0 0.0
2014-Jun-28 09:25N 43°33' E 007°07'0 0.0
2014-Jun-28 08:31N 43°33' E 007°07'0 0.0
2014-Jun-28 07:31N 43°33' E 007°07'0 0.0
2014-Jun-28 06:31N 43°33' E 007°07'0 0.0
2014-Jun-28 05:31N 43°33' E 007°07'0 0.0
2014-Jun-28 04:31N 43°33' E 007°07'0 0.0
2014-Jun-28 03:31N 43°33' E 007°07'0 0.0
2014-Jun-28 02:31N 43°33' E 007°07'0 0.0
2014-Jun-28 01:19N 43°33' E 007°07'0 0.0
2014-Jun-28 00:31N 43°33' E 007°07'0 0.0
2014-Jun-27 23:31N 43°33' E 007°07'0 0.0
2014-Jun-27 22:31N 43°33' E 007°07'0 0.0
2014-Jun-27 21:31N 43°33' E 007°07'0 0.0
2014-Jun-27 20:25N 43°33' E 007°07'0 0.0
2014-Jun-27 19:31N 43°33' E 007°07'0 0.0
2014-Jun-27 18:31N 43°33' E 007°07'0 0.0
2014-Jun-27 17:31N 43°33' E 007°07'2 2.2
2014-Jun-27 16:34N 43°34' E 007°09'5 5.2
2014-Jun-27 15:33N 43°39' E 007°10'0 0.1
2014-Jun-27 14:33N 43°39' E 007°10'1 0.5
2014-Jun-27 13:08N 43°39' E 007°11'0 0.0
2014-Jun-27 12:32N 43°39' E 007°11'0 0.0
2014-Jun-27 11:26N 43°39' E 007°11'0 0.5
2014-Jun-27 10:33N 43°39' E 007°10'4 3.7
2014-Jun-27 09:33N 43°35' E 007°08'6 2.8
2014-Jun-27 07:27N 43°33' E 007°01'6 6.2
2014-Jun-27 06:33N 43°35' E 007°08'0 0.1
2014-Jun-27 05:30N 43°35' E 007°08'0 0.0
2014-Jun-27 04:30N 43°35' E 007°08'0 0.0
2014-Jun-27 03:30N 43°35' E 007°08'0 0.0
2014-Jun-27 02:30N 43°35' E 007°08'0 0.0
2014-Jun-27 01:30N 43°35' E 007°08'0 0.0
2014-Jun-27 00:30N 43°35' E 007°08'0 0.0
2014-Jun-26 23:30N 43°35' E 007°08'0 0.0
2014-Jun-26 22:30N 43°35' E 007°08'0 0.0
2014-Jun-26 21:30N 43°35' E 007°08'0 0.0
2014-Jun-26 20:30N 43°35' E 007°08'0 0.0
2014-Jun-26 19:24N 43°35' E 007°08'0 0.0
2014-Jun-26 18:30N 43°35' E 007°08'13 4.3
2014-Jun-26 15:32N 43°43' E 007°21'0 0.0
2014-Jun-26 14:20N 43°43' E 007°21'2 0.5
2014-Jun-26 11:06N 43°41' E 007°21'814.8
2014-Jun-26 10:33N 43°36' E 007°14'10 9.2
2014-Jun-26 09:31N 43°32' E 007°01'0 0.0
2014-Jun-26 07:31N 43°32' E 007°01'1 0.7
2014-Jun-26 06:33N 43°32' E 007°01'4 3.9
2014-Jun-26 05:31N 43°34' E 007°06'0 0.0
2014-Jun-26 04:31N 43°34' E 007°06'0 0.0
2014-Jun-26 03:34N 43°34' E 007°06'0 0.0
2014-Jun-26 02:34N 43°34' E 007°06'0 0.0
2014-Jun-26 01:30N 43°34' E 007°06'0 0.0
2014-Jun-26 00:30N 43°34' E 007°06'0 0.0
2014-Jun-25 23:31N 43°34' E 007°06'0 0.0
2014-Jun-25 22:31N 43°34' E 007°06'0 0.0
2014-Jun-25 21:30N 43°34' E 007°06'0 0.0
2014-Jun-25 20:31N 43°34' E 007°06'0 0.0
2014-Jun-25 19:31N 43°34' E 007°06'0 0.0
2014-Jun-25 18:31N 43°34' E 007°06'7 7.8
2014-Jun-25 17:33N 43°27' E 007°01'1615.3
2014-Jun-25 16:32N 43°16' E 006°46'5 4.9
2014-Jun-25 15:33N 43°14' E 006°40'0 0.0
2014-Jun-25 14:33N 43°14' E 006°40'0 0.0
2014-Jun-25 13:29N 43°14' E 006°40'0 0.0
2014-Jun-25 12:32N 43°14' E 006°40'0 0.0
2014-Jun-25 11:29N 43°14' E 006°40'0 0.1
2014-Jun-25 10:30N 43°14' E 006°40'0 0.0
2014-Jun-25 09:29N 43°14' E 006°40'0 0.0
2014-Jun-25 08:29N 43°14' E 006°40'0 0.0
2014-Jun-25 07:23N 43°14' E 006°40'3 3.8
2014-Jun-25 06:34N 43°16' E 006°43'4 4.2
2014-Jun-25 05:32N 43°16' E 006°38'0 0.0
2014-Jun-25 02:11N 43°16' E 006°37'0 0.0
2014-Jun-25 01:29N 43°16' E 006°38'0 0.0
2014-Jun-25 00:29N 43°16' E 006°38'0 0.0
2014-Jun-24 12:26N 43°16' E 006°37'3 1.5
2014-Jun-24 10:33N 43°17' E 006°41'4 1.8
2014-Jun-24 08:28N 43°14' E 006°40'0 0.0
2014-Jun-24 07:28N 43°14' E 006°40'2 2.6
2014-Jun-24 06:33N 43°14' E 006°43'1515.0
2014-Jun-24 05:34N 43°22' E 007°01'6315.7
2014-Jun-24 01:33N 43°54' E 008°16'1615.8
2014-Jun-24 00:34N 44°02' E 008°35'1515.5
2014-Jun-23 23:34N 44°10' E 008°53'1514.8
2014-Jun-23 22:33N 44°17' E 009°11'2 0.1
2014-Jun-23 07:13N 44°18' E 009°13'812.1
2014-Jun-23 06:33N 44°14' E 009°05'7714.3
2014-Jun-23 01:09N 43°38' E 007°29'914.8
2014-Jun-23 00:34N 43°35' E 007°18'6 6.1
2014-Jun-22 23:33N 43°35' E 007°09'4 3.9
2014-Jun-22 22:30N 43°39' E 007°11'0 0.0
2014-Jun-22 21:30N 43°39' E 007°11'0 0.0
2014-Jun-22 20:30N 43°39' E 007°11'0 0.0
2014-Jun-22 19:30N 43°39' E 007°11'0 0.2
2014-Jun-22 18:26N 43°39' E 007°11'0 0.0
2014-Jun-22 17:32N 43°39' E 007°11'0 0.0
2014-Jun-22 16:32N 43°39' E 007°11'0 0.0
2014-Jun-22 15:32N 43°39' E 007°11'7 7.1
2014-Jun-22 14:33N 43°32' E 007°08'2 1.6
2014-Jun-22 13:31N 43°33' E 007°06'0 0.0
2014-Jun-22 12:31N 43°33' E 007°06'0 0.0
2014-Jun-22 11:25N 43°33' E 007°06'0 0.0
2014-Jun-22 10:31N 43°33' E 007°06'0 0.0
2014-Jun-22 09:19N 43°33' E 007°06'4 4.7
2014-Jun-22 08:33N 43°30' E 007°04'3 0.8
2014-Jun-22 04:31N 43°32' E 007°01'0 0.0
2014-Jun-22 03:31N 43°32' E 007°01'0 0.0
2014-Jun-22 02:31N 43°32' E 007°01'0 0.0
2014-Jun-22 01:31N 43°32' E 007°01'0 0.0
2014-Jun-22 00:31N 43°32' E 007°01'0 0.0
2014-Jun-21 15:31N 43°32' E 007°01'0 0.0
2014-Jun-21 11:19N 43°32' E 007°01'0 0.0
2014-Jun-21 10:31N 43°32' E 007°01'0 0.0
2014-Jun-21 09:31N 43°32' E 007°01'0 0.0
2014-Jun-21 08:25N 43°32' E 007°01'0 0.0
2014-Jun-21 04:31N 43°32' E 007°01'0 0.0
2014-Jun-20 22:28N 43°32' E 007°01'0 0.0
2014-Jun-20 21:04N 43°32' E 007°01'  

Dump ship's entire track history